createdAt,value
2018-02-05T00:00:09.224Z,13.00
2018-02-05T00:01:09.214Z,13.50
2018-02-05T00:02:09.206Z,12.90
2018-02-05T00:03:09.199Z,12.80
2018-02-05T00:04:09.189Z,12.50
2018-02-05T00:05:09.181Z,12.50
2018-02-05T00:06:09.208Z,12.60
2018-02-05T00:07:09.170Z,13.20
2018-02-05T00:08:09.155Z,13.10
2018-02-05T00:09:09.147Z,12.90
2018-02-05T00:10:09.137Z,13.10
2018-02-05T00:11:09.130Z,12.40
2018-02-05T00:12:09.120Z,12.60
2018-02-05T00:13:09.113Z,13.20
2018-02-05T00:14:09.104Z,12.90
2018-02-05T00:15:09.095Z,12.70
2018-02-05T00:16:09.086Z,13.80
2018-02-05T00:17:09.078Z,13.50
2018-02-05T00:18:09.068Z,13.10
2018-02-05T00:19:09.062Z,15.20
2018-02-05T00:20:09.052Z,15.90
2018-02-05T00:21:09.043Z,16.20
2018-02-05T00:22:09.035Z,15.30
2018-02-05T00:23:09.027Z,15.90
2018-02-05T00:24:09.016Z,14.40
2018-02-05T00:25:09.009Z,14.70
2018-02-05T00:26:09.001Z,14.30
2018-02-05T00:27:08.992Z,14.70
2018-02-05T00:28:08.982Z,13.70
2018-02-05T00:29:08.973Z,14.80
2018-02-05T00:30:08.965Z,14.00
2018-02-05T00:31:08.956Z,13.30
2018-02-05T00:32:08.948Z,14.80
2018-02-05T00:33:08.938Z,14.30
2018-02-05T00:34:08.930Z,11.50
2018-02-05T00:35:08.922Z,8.70
2018-02-05T00:36:08.912Z,8.50
2018-02-05T00:37:08.904Z,7.70
2018-02-05T00:38:08.894Z,9.50
2018-02-05T00:39:08.886Z,8.50
2018-02-05T00:40:08.877Z,8.50
2018-02-05T00:41:08.868Z,8.70
2018-02-05T00:42:08.860Z,9.30
2018-02-05T00:43:08.850Z,8.20
2018-02-05T00:44:08.841Z,7.20
2018-02-05T00:45:08.833Z,6.70
2018-02-05T00:46:08.824Z,6.00
2018-02-05T00:47:08.816Z,6.50
2018-02-05T00:48:08.806Z,5.70
2018-02-05T00:49:08.798Z,5.60
2018-02-05T00:50:08.788Z,6.20
2018-02-05T00:51:08.780Z,6.80
2018-02-05T00:52:08.771Z,6.50
2018-02-05T00:53:08.762Z,6.90
2018-02-05T00:54:08.754Z,6.30
2018-02-05T00:55:08.746Z,6.80
2018-02-05T00:56:08.735Z,5.60
2018-02-05T00:57:08.728Z,5.80
2018-02-05T00:58:08.719Z,5.50
2018-02-05T00:59:08.710Z,5.10
2018-02-05T01:00:08.700Z,5.70
2018-02-05T01:01:08.692Z,6.00
2018-02-05T01:02:08.684Z,5.30
2018-02-05T01:03:08.675Z,5.20
2018-02-05T01:04:08.666Z,4.90
2018-02-05T01:05:08.657Z,5.20
2018-02-05T01:06:08.648Z,4.90
2018-02-05T01:07:08.640Z,4.60
2018-02-05T01:08:08.629Z,5.20
2018-02-05T01:09:08.622Z,5.00
2018-02-05T01:10:08.614Z,4.50
2018-02-05T01:11:08.605Z,5.20
2018-02-05T01:12:08.596Z,5.40
2018-02-05T01:13:08.586Z,5.20
2018-02-05T01:14:08.577Z,5.20
2018-02-05T01:15:08.570Z,4.70
2018-02-05T01:16:08.561Z,5.40
2018-02-05T01:17:08.552Z,5.80
2018-02-05T01:18:08.542Z,4.70
2018-02-05T01:19:08.534Z,5.20
2018-02-05T01:20:08.566Z,4.90
2018-02-05T01:21:08.516Z,5.20
2018-02-05T01:22:08.508Z,4.80
2018-02-05T01:23:08.557Z,5.30
2018-02-05T01:24:08.490Z,5.10
2018-02-05T01:25:08.482Z,5.50
2018-02-05T01:26:08.476Z,5.20
2018-02-05T01:27:08.464Z,5.10
2018-02-05T01:28:08.454Z,4.80
2018-02-05T01:29:08.446Z,4.60
2018-02-05T01:30:08.437Z,4.50
2018-02-05T01:31:08.429Z,4.60
2018-02-05T01:32:08.420Z,4.50
2018-02-05T01:33:08.411Z,4.50
2018-02-05T01:34:08.401Z,4.20
2018-02-05T01:35:08.392Z,4.10
2018-02-05T01:36:08.383Z,4.10
2018-02-05T01:37:08.376Z,4.30
2018-02-05T01:38:08.367Z,4.10
2018-02-05T01:39:08.360Z,5.10
2018-02-05T01:40:08.349Z,4.30
2018-02-05T01:41:08.340Z,4.70
2018-02-05T01:42:08.331Z,5.30
2018-02-05T01:43:08.323Z,4.90
2018-02-05T01:44:08.314Z,4.70
2018-02-05T01:45:08.306Z,4.70
2018-02-05T01:46:08.297Z,4.70
2018-02-05T01:47:08.287Z,5.10
2018-02-05T01:48:08.277Z,5.50
2018-02-05T01:49:08.274Z,4.80
2018-02-05T01:50:08.262Z,5.40
2018-02-05T01:51:08.252Z,5.10
2018-02-05T01:52:08.243Z,4.80
2018-02-05T01:53:08.236Z,5.10
2018-02-05T01:54:08.228Z,5.00
2018-02-05T01:55:08.218Z,6.50
2018-02-05T01:56:08.208Z,5.50
2018-02-05T01:57:08.234Z,5.60
2018-02-05T01:58:08.192Z,5.40
2018-02-05T01:59:08.184Z,5.40
2018-02-05T02:00:08.173Z,5.00
2018-02-05T02:01:08.166Z,5.30
2018-02-05T02:02:08.163Z,5.00
2018-02-05T02:03:08.149Z,5.90
2018-02-05T02:04:08.139Z,5.50
2018-02-05T02:05:08.131Z,5.70
2018-02-05T02:06:08.122Z,5.50
2018-02-05T02:07:08.113Z,6.30
2018-02-05T02:08:08.105Z,5.10
2018-02-05T02:09:08.096Z,5.50
2018-02-05T02:10:08.087Z,5.70
2018-02-05T02:11:08.078Z,6.20
2018-02-05T02:12:08.069Z,5.50
2018-02-05T02:13:08.061Z,5.10
2018-02-05T02:14:08.051Z,6.40
2018-02-05T02:15:08.044Z,6.90
2018-02-05T02:16:08.034Z,6.70
2018-02-05T02:17:08.026Z,6.10
2018-02-05T02:18:08.017Z,6.40
2018-02-05T02:19:08.008Z,5.90
2018-02-05T02:20:07.998Z,6.20
2018-02-05T02:21:07.990Z,6.10
2018-02-05T02:22:07.981Z,5.90
2018-02-05T02:23:07.973Z,5.90
2018-02-05T02:24:07.963Z,6.10
2018-02-05T02:25:07.955Z,6.60
2018-02-05T02:26:07.946Z,6.40
2018-02-05T02:27:07.938Z,6.60
2018-02-05T02:28:07.927Z,6.50
2018-02-05T02:29:07.919Z,8.20
2018-02-05T02:30:07.911Z,7.50
2018-02-05T02:31:07.903Z,7.90
2018-02-05T02:32:07.893Z,8.20
2018-02-05T02:33:07.884Z,9.00
2018-02-05T02:34:07.876Z,10.10
2018-02-05T02:35:07.869Z,10.30
2018-02-05T02:36:07.859Z,10.60
2018-02-05T02:37:07.849Z,9.70
2018-02-05T02:38:07.841Z,10.50
2018-02-05T02:39:07.832Z,10.00
2018-02-05T02:40:07.822Z,10.80
2018-02-05T02:41:07.815Z,11.50
2018-02-05T02:42:07.806Z,11.10
2018-02-05T02:43:07.798Z,11.80
2018-02-05T02:44:07.788Z,11.80
2018-02-05T02:45:07.779Z,10.60
2018-02-05T02:46:07.771Z,11.90
2018-02-05T02:47:07.761Z,11.80
2018-02-05T02:48:07.753Z,10.90
2018-02-05T02:49:07.744Z,11.30
2018-02-05T02:50:07.736Z,10.70
2018-02-05T02:51:07.727Z,11.10
2018-02-05T02:52:07.717Z,10.20
2018-02-05T02:53:07.709Z,10.60
2018-02-05T02:54:07.700Z,11.90
2018-02-05T02:55:07.695Z,11.60
2018-02-05T02:56:07.683Z,11.20
2018-02-05T02:57:07.672Z,13.00
2018-02-05T02:58:07.665Z,13.60
2018-02-05T02:59:07.657Z,13.10
2018-02-05T03:00:07.647Z,14.80
2018-02-05T03:01:07.638Z,15.50
2018-02-05T03:02:07.630Z,15.70
2018-02-05T03:03:07.622Z,15.30
2018-02-05T03:04:07.611Z,15.50
2018-02-05T03:05:07.603Z,14.90
2018-02-05T03:06:07.595Z,16.10
2018-02-05T03:07:07.586Z,16.00
2018-02-05T03:08:07.577Z,15.00
2018-02-05T03:09:07.566Z,15.20
2018-02-05T03:10:07.558Z,14.80
2018-02-05T03:11:07.550Z,15.10
2018-02-05T03:12:07.540Z,14.50
2018-02-05T03:13:07.531Z,14.50
2018-02-05T03:14:07.524Z,13.80
2018-02-05T03:15:07.515Z,14.60
2018-02-05T03:16:07.505Z,15.10
2018-02-05T03:17:07.497Z,15.80
2018-02-05T03:18:07.489Z,15.40
2018-02-05T03:19:07.484Z,15.30
2018-02-05T03:20:07.471Z,14.70
2018-02-05T03:21:07.464Z,15.60
2018-02-05T03:22:07.454Z,15.30
2018-02-05T03:23:07.445Z,13.90
2018-02-05T03:24:07.435Z,14.30
2018-02-05T03:25:07.426Z,15.30
2018-02-05T03:26:07.418Z,15.40
2018-02-05T03:27:07.410Z,15.00
2018-02-05T03:28:07.400Z,14.20
2018-02-05T03:29:07.392Z,14.20
2018-02-05T03:30:07.382Z,14.90
2018-02-05T03:31:07.374Z,14.00
2018-02-05T03:32:07.365Z,13.90
2018-02-05T03:33:07.357Z,13.30
2018-02-05T03:34:07.348Z,14.70
2018-02-05T03:35:07.344Z,13.70
2018-02-05T03:36:07.329Z,14.20
2018-02-05T03:37:07.321Z,15.30
2018-02-05T03:38:07.313Z,13.80
2018-02-05T03:39:07.303Z,14.10
2018-02-05T03:40:07.294Z,14.60
2018-02-05T03:41:07.285Z,12.70
2018-02-05T03:42:07.278Z,13.40
2018-02-05T03:43:07.269Z,14.90
2018-02-05T03:44:07.260Z,14.20
2018-02-05T03:45:07.251Z,13.30
2018-02-05T03:46:07.242Z,13.40
2018-02-05T03:47:07.269Z,14.40
2018-02-05T03:48:07.226Z,13.90
2018-02-05T03:49:07.216Z,14.70
2018-02-05T03:50:07.208Z,13.80
2018-02-05T03:51:07.199Z,13.90
2018-02-05T03:52:07.190Z,14.30
2018-02-05T03:53:07.182Z,14.00
2018-02-05T03:54:07.173Z,13.70
2018-02-05T03:55:07.164Z,13.50
2018-02-05T03:56:07.156Z,13.60
2018-02-05T03:57:07.146Z,14.20
2018-02-05T03:58:07.138Z,13.10
2018-02-05T03:59:07.130Z,13.30
2018-02-05T04:00:07.120Z,14.10
2018-02-05T04:01:07.113Z,13.20
2018-02-05T04:02:07.104Z,13.50
2018-02-05T04:03:07.095Z,12.10
2018-02-05T04:04:07.085Z,13.20
2018-02-05T04:05:07.078Z,13.60
2018-02-05T04:06:07.068Z,14.30
2018-02-05T04:07:07.060Z,12.80
2018-02-05T04:08:07.050Z,11.40
2018-02-05T04:09:07.042Z,12.40
2018-02-05T04:10:07.034Z,12.70
2018-02-05T04:11:07.025Z,11.90
2018-02-05T04:12:07.015Z,11.80
2018-02-05T04:13:07.006Z,12.00
2018-02-05T04:14:06.998Z,12.10
2018-02-05T04:15:06.990Z,11.90
2018-02-05T04:16:06.980Z,12.70
2018-02-05T04:17:06.971Z,12.20
2018-02-05T04:18:06.963Z,13.30
2018-02-05T04:19:06.954Z,12.90
2018-02-05T04:20:06.944Z,11.20
2018-02-05T04:21:06.936Z,12.30
2018-02-05T04:22:06.928Z,12.20
2018-02-05T04:23:06.919Z,12.50
2018-02-05T04:24:06.909Z,12.40
2018-02-05T04:25:06.901Z,12.10
2018-02-05T04:26:06.892Z,12.80
2018-02-05T04:27:06.887Z,11.90
2018-02-05T04:28:06.878Z,11.70
2018-02-05T04:29:06.865Z,11.60
2018-02-05T04:30:06.856Z,11.80
2018-02-05T04:31:06.848Z,12.60
2018-02-05T04:32:06.837Z,12.10
2018-02-05T04:33:06.830Z,12.40
2018-02-05T04:34:06.821Z,12.70
2018-02-05T04:35:06.812Z,12.80
2018-02-05T04:36:06.802Z,13.20
2018-02-05T04:37:06.793Z,13.20
2018-02-05T04:38:06.785Z,12.40
2018-02-05T04:39:06.776Z,12.70
2018-02-05T04:40:06.767Z,12.50
2018-02-05T04:41:06.758Z,13.90
2018-02-05T04:42:06.748Z,12.60
2018-02-05T04:43:06.740Z,13.00
2018-02-05T04:44:06.729Z,12.90
2018-02-05T04:45:06.722Z,13.60
2018-02-05T04:46:06.713Z,13.70
2018-02-05T04:47:06.704Z,13.80
2018-02-05T04:48:06.695Z,14.20
2018-02-05T04:49:06.684Z,15.10
2018-02-05T04:50:06.675Z,17.80
2018-02-05T04:51:06.667Z,18.50
2018-02-05T04:52:06.657Z,17.80
2018-02-05T04:53:06.648Z,16.40
2018-02-05T04:54:06.640Z,17.30
2018-02-05T04:55:06.631Z,18.60
2018-02-05T04:56:06.622Z,19.20
2018-02-05T04:57:06.613Z,20.80
2018-02-05T04:58:06.605Z,17.60
2018-02-05T04:59:06.595Z,17.90
2018-02-05T05:00:06.587Z,19.70
2018-02-05T05:01:06.575Z,17.00
2018-02-05T05:02:06.566Z,16.30
2018-02-05T05:03:06.559Z,16.00
2018-02-05T05:04:06.548Z,16.20
2018-02-05T05:05:06.540Z,16.80
2018-02-05T05:06:06.532Z,16.60
2018-02-05T05:07:06.522Z,16.10
2018-02-05T05:08:06.511Z,16.30
2018-02-05T05:09:06.504Z,14.90
2018-02-05T05:10:06.495Z,14.40
2018-02-05T05:11:06.485Z,15.00
2018-02-05T05:12:06.475Z,17.00
2018-02-05T05:13:06.469Z,15.90
2018-02-05T05:14:06.458Z,14.60
2018-02-05T05:15:06.449Z,14.40
2018-02-05T05:16:06.439Z,14.80
2018-02-05T05:17:06.430Z,13.60
2018-02-05T05:18:06.422Z,14.50
2018-02-05T05:19:06.411Z,15.90
2018-02-05T05:20:06.402Z,15.50
2018-02-05T05:21:06.394Z,14.70
2018-02-05T05:22:06.385Z,14.90
2018-02-05T05:23:06.374Z,13.80
2018-02-05T05:24:06.364Z,13.10
2018-02-05T05:25:06.355Z,12.20
2018-02-05T05:26:06.347Z,12.70
2018-02-05T05:27:06.338Z,12.30
2018-02-05T05:28:06.327Z,12.80
2018-02-05T05:29:06.319Z,11.90
2018-02-05T05:30:06.313Z,11.80
2018-02-05T05:31:06.302Z,12.30
2018-02-05T05:32:06.291Z,12.70
2018-02-05T05:33:06.282Z,12.60
2018-02-05T05:34:06.273Z,12.40
2018-02-05T05:35:06.264Z,12.00
2018-02-05T05:36:06.253Z,12.20
2018-02-05T05:37:06.243Z,12.60
2018-02-05T05:38:06.235Z,12.80
2018-02-05T05:39:06.225Z,12.00
2018-02-05T05:40:06.215Z,11.80
2018-02-05T05:41:06.206Z,11.70
2018-02-05T05:42:06.197Z,11.60
2018-02-05T05:43:06.188Z,13.70
2018-02-05T05:44:06.178Z,12.30
2018-02-05T05:45:06.168Z,12.30
2018-02-05T05:46:06.159Z,11.40
2018-02-05T05:47:06.151Z,12.60
2018-02-05T05:48:06.140Z,13.20
2018-02-05T05:49:06.129Z,12.70
2018-02-05T05:50:06.120Z,11.70
2018-02-05T05:51:06.111Z,12.80
2018-02-05T05:52:06.102Z,13.30
2018-02-05T05:53:06.094Z,13.20
2018-02-05T05:54:06.082Z,13.40
2018-02-05T05:55:06.097Z,13.10
2018-02-05T05:56:06.063Z,12.80
2018-02-05T05:57:06.054Z,12.90
2018-02-05T05:58:06.046Z,14.50
2018-02-05T05:59:06.036Z,13.30
2018-02-05T06:00:06.026Z,12.20
2018-02-05T06:01:06.019Z,13.30
2018-02-05T06:02:06.008Z,13.00
2018-02-05T06:03:05.998Z,12.50
2018-02-05T06:04:05.987Z,12.80
2018-02-05T06:05:05.978Z,12.70
2018-02-05T06:06:05.969Z,12.20
2018-02-05T06:07:05.959Z,12.00
2018-02-05T06:08:05.950Z,12.80
2018-02-05T06:09:05.939Z,12.00
2018-02-05T06:10:05.930Z,12.20
2018-02-05T06:11:05.921Z,13.10
2018-02-05T06:12:05.916Z,13.10
2018-02-05T06:13:05.924Z,12.50
2018-02-05T06:14:05.893Z,14.20
2018-02-05T06:15:05.884Z,13.90
2018-02-05T06:16:05.873Z,12.60
2018-02-05T06:17:05.864Z,12.80
2018-02-05T06:18:05.855Z,12.10
2018-02-05T06:19:05.847Z,13.70
2018-02-05T06:20:05.836Z,13.90
2018-02-05T06:21:05.827Z,13.30
2018-02-05T06:22:05.817Z,13.00
2018-02-05T06:23:05.809Z,12.80
2018-02-05T06:24:05.799Z,15.00
2018-02-05T06:25:05.789Z,14.70
2018-02-05T06:26:05.780Z,14.60
2018-02-05T06:27:05.771Z,14.50
2018-02-05T06:28:05.761Z,15.80
2018-02-05T06:29:05.750Z,13.60
2018-02-05T06:30:05.743Z,14.00
2018-02-05T06:31:05.734Z,13.70
2018-02-05T06:32:05.722Z,13.80
2018-02-05T06:33:05.712Z,13.40
2018-02-05T06:34:05.704Z,13.80
2018-02-05T06:35:05.694Z,13.30
2018-02-05T06:36:05.685Z,13.00
2018-02-05T06:37:05.675Z,14.20
2018-02-05T06:38:05.664Z,14.50
2018-02-05T06:39:05.656Z,14.30
2018-02-05T06:40:05.645Z,14.60
2018-02-05T06:41:05.635Z,14.10
2018-02-05T06:42:05.627Z,13.70
2018-02-05T06:43:05.617Z,14.50
2018-02-05T06:44:05.607Z,14.40
2018-02-05T06:45:05.601Z,14.90
2018-02-05T06:46:05.591Z,15.20
2018-02-05T06:47:05.578Z,15.50
2018-02-05T06:48:05.571Z,14.80
2018-02-05T06:49:05.560Z,14.90
2018-02-05T06:50:05.550Z,16.20
2018-02-05T06:51:05.541Z,15.90
2018-02-05T06:52:05.530Z,16.60
2018-02-05T06:53:05.521Z,16.50
2018-02-05T06:54:05.512Z,17.30
2018-02-05T06:55:05.502Z,18.10
2018-02-05T06:56:05.492Z,17.80
2018-02-05T06:57:05.482Z,18.30
2018-02-05T06:58:05.473Z,18.90
2018-02-05T06:59:05.464Z,20.40
2018-02-05T07:00:05.454Z,19.70
2018-02-05T07:01:05.443Z,19.50
2018-02-05T07:02:05.434Z,20.50
2018-02-05T07:03:05.425Z,18.60
2018-02-05T07:04:05.418Z,19.40
2018-02-05T07:05:05.405Z,17.20
2018-02-05T07:06:05.396Z,17.50
2018-02-05T07:07:05.386Z,16.90
2018-02-05T07:08:05.377Z,16.50
2018-02-05T07:09:05.367Z,17.60
2018-02-05T07:10:05.357Z,17.80
2018-02-05T07:11:05.348Z,15.40
2018-02-05T07:12:05.337Z,15.20
2018-02-05T07:13:05.329Z,17.00
2018-02-05T07:14:05.320Z,16.70
2018-02-05T07:15:05.342Z,18.10
2018-02-05T07:16:05.301Z,17.20
2018-02-05T07:17:05.292Z,18.00
2018-02-05T07:18:05.283Z,20.20
2018-02-05T07:19:05.274Z,22.90
2018-02-05T07:20:05.263Z,21.40
2018-02-05T07:21:05.253Z,19.10
2018-02-05T07:22:05.245Z,18.30
2018-02-05T07:23:05.235Z,18.30
2018-02-05T07:24:05.229Z,17.40
2018-02-05T07:25:05.222Z,17.70
2018-02-05T07:26:05.206Z,16.90
2018-02-05T07:27:05.198Z,18.30
2018-02-05T07:28:05.188Z,17.80
2018-02-05T07:29:05.181Z,19.20
2018-02-05T07:30:05.169Z,17.70
2018-02-05T07:31:05.161Z,17.80
2018-02-05T07:32:05.155Z,18.70
2018-02-05T07:33:05.144Z,21.00
2018-02-05T07:34:05.133Z,18.60
2018-02-05T07:35:05.123Z,18.60
2018-02-05T07:36:05.112Z,20.30
2018-02-05T07:37:05.104Z,15.40
2018-02-05T07:38:05.094Z,15.60
2018-02-05T07:39:05.106Z,16.20
2018-02-05T07:40:05.076Z,16.40
2018-02-05T07:41:05.067Z,15.70
2018-02-05T07:42:05.058Z,14.40
2018-02-05T07:43:05.049Z,15.70
2018-02-05T07:44:05.038Z,16.70
2018-02-05T07:45:05.031Z,16.20
2018-02-05T07:46:05.021Z,18.10
2018-02-05T07:47:05.012Z,19.80
2018-02-05T07:48:05.002Z,17.50
2018-02-05T07:49:04.992Z,17.20
2018-02-05T07:50:04.983Z,16.70
2018-02-05T07:51:04.979Z,18.80
2018-02-05T07:52:04.966Z,19.30
2018-02-05T07:53:04.957Z,20.50
2018-02-05T07:54:04.948Z,17.70
2018-02-05T07:55:04.938Z,17.50
2018-02-05T07:56:04.936Z,18.90
2018-02-05T07:57:04.919Z,17.70
2018-02-05T07:58:04.914Z,17.30
2018-02-05T07:59:04.902Z,17.70
2018-02-05T08:00:04.895Z,15.80
2018-02-05T08:01:04.884Z,17.50
2018-02-05T08:02:04.874Z,17.60
2018-02-05T08:03:04.868Z,18.00
2018-02-05T08:04:04.856Z,17.00
2018-02-05T08:05:04.848Z,17.10
2018-02-05T08:06:04.840Z,16.70
2018-02-05T08:07:04.830Z,15.70
2018-02-05T08:08:04.820Z,16.60
2018-02-05T08:09:04.812Z,18.00
2018-02-05T08:10:05.152Z,16.70
2018-02-05T08:11:04.795Z,17.80
2018-02-05T08:12:04.786Z,18.10
2018-02-05T08:13:04.778Z,17.80
2018-02-05T08:14:04.768Z,16.80
2018-02-05T08:15:04.761Z,17.50
2018-02-05T08:16:04.753Z,16.80
2018-02-05T08:17:04.744Z,16.10
2018-02-05T08:18:04.734Z,17.80
2018-02-05T08:19:04.727Z,19.30
2018-02-05T08:20:04.720Z,20.20
2018-02-05T08:21:04.709Z,17.70
2018-02-05T08:22:04.701Z,17.00
2018-02-05T08:23:04.692Z,16.30
2018-02-05T08:24:04.683Z,17.90
2018-02-05T08:25:04.675Z,17.70
2018-02-05T08:26:04.666Z,15.40
2018-02-05T08:27:04.658Z,14.70
2018-02-05T08:28:04.648Z,16.20
2018-02-05T08:29:04.640Z,13.90
2018-02-05T08:30:04.632Z,15.10
2018-02-05T08:31:04.625Z,14.90
2018-02-05T08:32:04.616Z,14.30
2018-02-05T08:33:04.609Z,16.00
2018-02-05T08:34:04.601Z,14.80
2018-02-05T08:35:04.593Z,15.10
2018-02-05T08:36:04.583Z,15.20
2018-02-05T08:37:04.577Z,16.30
2018-02-05T08:38:04.569Z,13.80
2018-02-05T08:39:04.561Z,14.10
2018-02-05T08:40:04.554Z,14.30
2018-02-05T08:41:04.546Z,13.70
2018-02-05T08:42:04.539Z,14.90
2018-02-05T08:43:04.533Z,13.80
2018-02-05T08:44:04.523Z,14.50
2018-02-05T08:45:04.517Z,14.50
2018-02-05T08:46:04.510Z,13.30
2018-02-05T08:47:04.503Z,13.20
2018-02-05T08:48:04.495Z,13.80
2018-02-05T08:49:04.487Z,14.90
2018-02-05T08:50:04.483Z,13.80
2018-02-05T08:51:04.475Z,15.40
2018-02-05T08:52:04.467Z,16.00
2018-02-05T08:53:04.459Z,16.00
2018-02-05T08:54:04.453Z,15.30
2018-02-05T08:55:04.445Z,15.80
2018-02-05T08:56:04.439Z,15.80
2018-02-05T08:57:04.432Z,15.80
2018-02-05T08:58:04.426Z,16.00
2018-02-05T08:59:04.419Z,14.60
2018-02-05T09:00:04.412Z,15.10
2018-02-05T09:01:04.405Z,13.60
2018-02-05T09:02:04.399Z,17.40
2018-02-05T09:03:04.392Z,21.40
2018-02-05T09:04:04.384Z,15.00
2018-02-05T09:05:04.378Z,15.20
2018-02-05T09:06:04.372Z,16.00
2018-02-05T09:07:04.363Z,15.90
2018-02-05T09:08:04.359Z,16.00
2018-02-05T09:09:04.351Z,15.30
2018-02-05T09:10:04.343Z,15.10
2018-02-05T09:11:04.337Z,20.30
2018-02-05T09:12:04.330Z,15.70
2018-02-05T09:13:04.321Z,14.30
2018-02-05T09:14:04.315Z,16.70
2018-02-05T09:15:04.308Z,17.60
2018-02-05T09:16:04.300Z,15.90
2018-02-05T09:17:04.612Z,15.50
2018-02-05T09:18:04.286Z,16.00
2018-02-05T09:19:04.280Z,16.50
2018-02-05T09:20:04.272Z,17.70
2018-02-05T09:21:04.266Z,17.20
2018-02-05T09:22:04.258Z,16.70
2018-02-05T09:23:04.250Z,19.10
2018-02-05T09:24:04.244Z,25.70
2018-02-05T09:25:04.243Z,21.30
2018-02-05T09:26:04.235Z,16.10
2018-02-05T09:27:04.224Z,15.60
2018-02-05T09:28:04.216Z,15.20
2018-02-05T09:29:04.210Z,14.70
2018-02-05T09:30:04.201Z,15.20
2018-02-05T09:31:04.195Z,14.40
2018-02-05T09:32:04.186Z,15.20
2018-02-05T09:33:04.179Z,15.60
2018-02-05T09:34:04.173Z,15.30
2018-02-05T09:35:04.166Z,14.60
2018-02-05T09:36:04.159Z,14.50
2018-02-05T09:37:04.151Z,14.90
2018-02-05T09:38:04.145Z,15.50
2018-02-05T09:39:04.139Z,14.40
2018-02-05T09:40:04.131Z,14.60
2018-02-05T09:41:04.124Z,15.70
2018-02-05T09:42:04.116Z,13.70
2018-02-05T09:43:04.109Z,14.60
2018-02-05T09:44:04.101Z,15.70
2018-02-05T09:45:04.094Z,15.00
2018-02-05T09:46:04.090Z,15.60
2018-02-05T09:47:04.080Z,14.00
2018-02-05T09:48:04.072Z,14.30
2018-02-05T09:49:04.066Z,14.50
2018-02-05T09:50:04.059Z,14.50
2018-02-05T09:51:04.051Z,13.70
2018-02-05T09:52:04.042Z,14.10
2018-02-05T09:53:04.036Z,14.20
2018-02-05T09:54:04.029Z,14.90
2018-02-05T09:55:04.024Z,14.60
2018-02-05T09:56:04.016Z,14.50
2018-02-05T09:57:04.009Z,15.60
2018-02-05T09:58:04.003Z,14.40
2018-02-05T09:59:03.996Z,14.60
2018-02-05T10:00:03.988Z,14.70
2018-02-05T10:01:04.034Z,15.50
2018-02-05T10:02:03.974Z,13.80
2018-02-05T10:03:03.969Z,15.60
2018-02-05T10:04:03.959Z,14.80
2018-02-05T10:05:03.954Z,14.60
2018-02-05T10:06:03.946Z,15.00
2018-02-05T10:07:03.940Z,14.50
2018-02-05T10:08:03.932Z,13.80
2018-02-05T10:09:03.931Z,13.50
2018-02-05T10:10:03.920Z,15.50
2018-02-05T10:11:03.913Z,13.80
2018-02-05T10:12:03.905Z,14.90
2018-02-05T10:13:03.899Z,14.80
2018-02-05T10:14:03.893Z,14.20
2018-02-05T10:15:03.885Z,14.00
2018-02-05T10:16:03.878Z,14.40
2018-02-05T10:17:03.872Z,15.00
2018-02-05T10:18:03.866Z,14.00
2018-02-05T10:19:03.860Z,14.90
2018-02-05T10:20:03.851Z,14.60
2018-02-05T10:21:03.844Z,15.50
2018-02-05T10:22:03.838Z,15.00
2018-02-05T10:23:03.833Z,14.60
2018-02-05T10:24:03.825Z,15.10
2018-02-05T10:25:03.820Z,13.30
2018-02-05T10:26:03.813Z,14.80
2018-02-05T10:27:03.808Z,14.20
2018-02-05T10:28:03.800Z,13.80
2018-02-05T10:29:03.794Z,14.20
2018-02-05T10:30:03.786Z,15.20
2018-02-05T10:31:03.783Z,14.20
2018-02-05T10:32:03.774Z,15.30
2018-02-05T10:33:03.769Z,14.60
2018-02-05T10:34:03.763Z,13.70
2018-02-05T10:35:03.758Z,13.90
2018-02-05T10:36:03.752Z,13.50
2018-02-05T10:37:03.745Z,14.90
2018-02-05T10:38:03.747Z,13.90
2018-02-05T10:39:03.731Z,14.00
2018-02-05T10:40:03.725Z,14.60
2018-02-05T10:41:03.719Z,14.80
2018-02-05T10:42:03.714Z,14.30
2018-02-05T10:43:03.709Z,14.60
2018-02-05T10:44:03.707Z,14.00
2018-02-05T10:45:03.697Z,12.70
2018-02-05T10:46:03.691Z,14.40
2018-02-05T10:47:03.685Z,14.00
2018-02-05T10:48:03.680Z,15.20
2018-02-05T10:49:03.676Z,14.20
2018-02-05T10:50:03.672Z,13.30
2018-02-05T10:51:03.667Z,12.40
2018-02-05T10:52:03.661Z,12.10
2018-02-05T10:53:03.656Z,13.20
2018-02-05T10:54:03.652Z,14.30
2018-02-05T10:55:03.648Z,12.30
2018-02-05T10:56:03.643Z,12.20
2018-02-05T10:57:03.637Z,12.30
2018-02-05T10:58:03.631Z,12.60
2018-02-05T10:59:03.628Z,12.70
2018-02-05T11:00:03.621Z,12.40
2018-02-05T11:01:03.619Z,12.00
2018-02-05T11:02:03.611Z,12.60
2018-02-05T11:03:03.607Z,11.60
2018-02-05T11:04:03.601Z,11.80
2018-02-05T11:05:03.596Z,12.10
2018-02-05T11:06:03.596Z,12.90
2018-02-05T11:07:03.584Z,11.50
2018-02-05T11:08:03.578Z,11.00
2018-02-05T11:09:03.573Z,10.80
2018-02-05T11:10:03.570Z,10.50
2018-02-05T11:11:03.563Z,10.90
2018-02-05T11:12:03.556Z,10.60
2018-02-05T11:13:03.552Z,10.90
2018-02-05T11:14:03.545Z,11.20
2018-02-05T11:15:03.541Z,11.80
2018-02-05T11:16:03.535Z,12.10
2018-02-05T11:17:03.529Z,11.50
2018-02-05T11:18:03.526Z,11.70
2018-02-05T11:19:03.518Z,11.20
2018-02-05T11:20:03.518Z,10.90
2018-02-05T11:21:03.506Z,11.20
2018-02-05T11:22:03.498Z,10.50
2018-02-05T11:23:03.495Z,11.30
2018-02-05T11:24:03.486Z,12.10
2018-02-05T11:25:03.483Z,10.60
2018-02-05T11:26:03.475Z,12.20
2018-02-05T11:27:03.469Z,11.70
2018-02-05T11:28:03.461Z,12.20
2018-02-05T11:29:03.455Z,12.00
2018-02-05T11:30:03.450Z,11.30
2018-02-05T11:31:03.444Z,11.60
2018-02-05T11:32:03.437Z,11.80
2018-02-05T11:33:03.431Z,11.70
2018-02-05T11:34:03.425Z,10.50
2018-02-05T11:35:03.419Z,10.30
2018-02-05T11:36:03.415Z,10.30
2018-02-05T11:37:03.455Z,11.00
2018-02-05T11:38:03.399Z,10.90
2018-02-05T11:39:03.393Z,10.90
2018-02-05T11:40:03.387Z,11.30
2018-02-05T11:41:03.380Z,11.30
2018-02-05T11:42:03.374Z,13.20
2018-02-05T11:43:03.369Z,12.70
2018-02-05T11:44:03.360Z,14.30
2018-02-05T11:45:03.352Z,11.70
2018-02-05T11:46:03.350Z,11.00
2018-02-05T11:47:03.347Z,10.70
2018-02-05T11:48:03.332Z,10.40
2018-02-05T11:49:03.324Z,11.20
2018-02-05T11:50:03.318Z,10.90
2018-02-05T11:51:03.312Z,10.60
2018-02-05T11:52:03.305Z,11.30
2018-02-05T11:53:03.299Z,12.30
2018-02-05T11:54:03.295Z,12.00
2018-02-05T11:55:03.289Z,12.60
2018-02-05T11:56:03.281Z,11.80
2018-02-05T11:57:03.275Z,11.10
2018-02-05T11:58:03.270Z,10.20
2018-02-05T11:59:03.264Z,11.30
2018-02-05T12:00:03.258Z,10.30
2018-02-05T12:01:03.253Z,10.80
2018-02-05T12:02:03.250Z,11.10
2018-02-05T12:03:03.243Z,11.50
2018-02-05T12:04:03.236Z,11.40
2018-02-05T12:05:03.232Z,11.10
2018-02-05T12:06:03.228Z,11.80
2018-02-05T12:07:03.223Z,11.20
2018-02-05T12:08:03.218Z,12.20
2018-02-05T12:09:03.213Z,11.80
2018-02-05T12:10:03.209Z,11.40
2018-02-05T12:11:03.210Z,11.00
2018-02-05T12:12:03.200Z,11.80
2018-02-05T12:13:03.195Z,11.20
2018-02-05T12:14:03.191Z,11.90
2018-02-05T12:15:03.188Z,12.50
2018-02-05T12:16:03.183Z,12.00
2018-02-05T12:17:03.179Z,11.20
2018-02-05T12:18:03.173Z,11.40
2018-02-05T12:19:03.169Z,11.30
2018-02-05T12:20:03.165Z,11.90
2018-02-05T12:21:03.161Z,12.00
2018-02-05T12:22:03.157Z,11.70
2018-02-05T12:23:03.153Z,10.60
2018-02-05T12:24:03.148Z,10.70
2018-02-05T12:25:03.145Z,11.00
2018-02-05T12:26:03.140Z,10.70
2018-02-05T12:27:03.134Z,10.30
2018-02-05T12:28:03.130Z,11.50
2018-02-05T12:29:03.127Z,11.10
2018-02-05T12:30:03.121Z,11.30
2018-02-05T12:31:03.118Z,10.40
2018-02-05T12:32:03.113Z,11.30
2018-02-05T12:33:03.111Z,9.90
2018-02-05T12:34:03.104Z,10.80
2018-02-05T12:35:03.101Z,10.70
2018-02-05T12:36:03.096Z,11.20
2018-02-05T12:37:03.090Z,11.20
2018-02-05T12:38:03.087Z,10.40
2018-02-05T12:39:03.080Z,10.60
2018-02-05T12:40:03.075Z,10.30
2018-02-05T12:41:03.070Z,10.70
2018-02-05T12:42:03.067Z,10.20
2018-02-05T12:43:03.061Z,10.20
2018-02-05T12:44:03.056Z,9.60
2018-02-05T12:45:03.198Z,9.70
2018-02-05T12:46:03.350Z,10.10
2018-02-05T12:47:03.042Z,9.80
2018-02-05T12:48:03.037Z,9.60
2018-02-05T12:49:03.031Z,9.00
2018-02-05T12:50:03.033Z,8.80
2018-02-05T12:51:03.019Z,9.70
2018-02-05T12:52:03.013Z,9.70
2018-02-05T12:53:03.008Z,11.10
2018-02-05T12:54:03.002Z,9.60
2018-02-05T12:55:02.997Z,9.10
2018-02-05T12:56:02.991Z,9.90